MDW weather

Chicago Midway International Airport
Chicago, Illinois, United States

Public forecast

Using degrees Fahrenheit for public forecast. Weather courtesy of forecast.io.

Current aviation weather report (METAR) for Chicago Midway International Airport

Retrieved 2019/10/23 01:53 UTC (44 minutes ago):

KMDW 230153Z 25010G17KT 10SM OVC065 10/03 A2978 RMK AO2 SLP088 T01000028

Aviation forecast (TAF) for Chicago Midway International Airport

Retrieved 2019-10-23 00:22 UTC (2 hours ago):

TAF KMDW 222320Z 2300/2406 25015G25KT P6SM BKN040 FM230300 25012G20KT P6SM BKN040 FM230600 24012KT P6SM FEW040 FM231500 22012G17KT P6SM BKN100 PROB30 2315/2319 -SHRA BKN060 FM231900 20010KT P6SM OVC060 FM240200 33009KT P6SM BKN035